De Queen, AR

2:44 AM CST on December 18, 2014 (GMT -0600)
Helms Sevier County | Change Station
CLOSE
Current Station
Airport
Location: De Queen,
Elevation: 354 ft
Nearby Weather Stations

Elev 354 ft 34.05 °N, 94.40 °W | Updated 8 minutes ago

Light Rain
Light Rain Mist
38 °F
Feels Like 34 °F
N
6
Wind Variable Wind from East

Today
High -- | Low -- °F
--% Chance of Precip.
Yesterday
High -- | Low -- °F
Precip. -- in
7:17 AM 5:10 PM
Waning Crescent, 16% visible
Pressure 30.18 in
Visibility 4.0 miles
Clouds Overcast 600 ft
Windchill 34 °F
Dew Point 37 °F
Humidity 97%
Rainfall 0.01 in
Snow Depth Not available.
UV 0 out of 12
Pollen 3.90 out of 12
Air Quality Not available.
Flu Activity Not available.
SPECI KDEQ 180836Z AUTO 09005KT 4SM -RA BR OVC006 03/03 A3018 RMK AO2 P0000 T00330028

More Conditions Fewer Conditions

Pressure 30.18 in
Visibility 4.0 miles
Clouds Overcast 600 ft
Windchill 34 °F
Dew Point 37 °F
Humidity 97%
Rainfall 0.01 in
Snow Depth Not available.
UV 0 out of 12
Pollen 3.90 out of 12
Air Quality Not available.
Flu Activity Not available.
SPECI KDEQ 180836Z AUTO 09005KT 4SM -RA BR OVC006 03/03 A3018 RMK AO2 P0000 T00330028

More Conditions Fewer Conditions

Nowcast | as of 2:08 am CST on December 18, 2014

Widespread light rain with embedded showers continue across most of the four state region early this morning. The more concentrated areas of rain were occurring mainly along and north of the Interstate 20 corridor of northeast Texas and northern Louisiana. Expect additional rainfall amounts across this region near one to to tenths of an inch. Further south...south of the Interstate 20 corridor...much lighter amounts can be expected.

×

10-Day Weather Forecast

Almanac

Astronomy

Dec. 18, 2014 Rise Set
Actual Time
Civil Twilight
Nautical Twilight
Astronomical Twilight
Moon
Length of Visible Light
Length of Day
Tomorrow will be .
, % of the Moon is Illuminated

Today's Extremes

State Highs State Lows

Community

WunderPhotos

Upload Photos

1,778,907 photos uploaded!

WunderBlogs® & News

Nearby

Air Quality

  Air Quality AQ Index Pollutant
Not available.

Snow Depth

Station Depth Elevation

Earthquake Activity

City Distance Mag. Time & Date
Minimum magnitude displayed is 2.5.

Coastal Water Temperatures

Place Temperature

Nearby Weather Stations